Terminal Aerodrome Forecast
Issued by NWS

Home | Current Version | Previous Version | Text Only | Print | Product List | Glossary On
Versions: 1 2 3 4 5 6 7 8 9 10 11 12 13 14 15 16 17
000
FTUS43 KIWX 191739
TAFSBN
TAF
KSBN 191739Z 1918/2018 10006KT P6SM OVC035
      TEMPO 1918/1920 4SM -SHRA BR BKN025
     FM192000 09005KT P6SM OVC025
     FM200600 00000KT 1SM BR BKN004
      TEMPO 2008/2012 1/2SM FG VV002
     FM201400 18006KT P6SM SCT025=

USA.gov is the U.S. government's official web portal to all federal, state and local government web resources and services.